sensor_id;sensor_type;location;lat;lon;timestamp;P1;durP1;ratioP1;P2;durP2;ratioP2
47824;SDS011;33589;48.242;14.676;2023-07-20T00:01:57;13.07;;;3.45;;
47824;SDS011;33589;48.242;14.676;2023-07-20T00:04:23;7.68;;;3.90;;
47824;SDS011;33589;48.242;14.676;2023-07-20T00:06:49;4.85;;;3.30;;
47824;SDS011;33589;48.242;14.676;2023-07-20T00:09:14;7.05;;;3.60;;
47824;SDS011;33589;48.242;14.676;2023-07-20T00:11:47;5.53;;;3.90;;
47824;SDS011;33589;48.242;14.676;2023-07-20T00:14:14;6.65;;;3.83;;
47824;SDS011;33589;48.242;14.676;2023-07-20T00:16:40;6.82;;;4.03;;
47824;SDS011;33589;48.242;14.676;2023-07-20T00:19:06;6.53;;;4.07;;
47824;SDS011;33589;48.242;14.676;2023-07-20T00:21:32;4.97;;;3.75;;
47824;SDS011;33589;48.242;14.676;2023-07-20T00:23:57;7.15;;;3.63;;
47824;SDS011;33589;48.242;14.676;2023-07-20T00:26:23;22.13;;;3.78;;
47824;SDS011;33589;48.242;14.676;2023-07-20T00:28:49;6.15;;;3.33;;
47824;SDS011;33589;48.242;14.676;2023-07-20T00:31:18;6.30;;;3.35;;
47824;SDS011;33589;48.242;14.676;2023-07-20T00:33:43;5.85;;;3.67;;
47824;SDS011;33589;48.242;14.676;2023-07-20T00:36:09;7.13;;;4.00;;
47824;SDS011;33589;48.242;14.676;2023-07-20T00:38:35;6.25;;;3.67;;
47824;SDS011;33589;48.242;14.676;2023-07-20T00:41:01;4.38;;;3.40;;
47824;SDS011;33589;48.242;14.676;2023-07-20T00:43:26;4.38;;;3.38;;
47824;SDS011;33589;48.242;14.676;2023-07-20T00:45:52;8.25;;;4.18;;
47824;SDS011;33589;48.242;14.676;2023-07-20T00:48:18;7.22;;;3.53;;
47824;SDS011;33589;48.242;14.676;2023-07-20T00:50:44;6.22;;;3.80;;
47824;SDS011;33589;48.242;14.676;2023-07-20T00:53:10;4.78;;;3.10;;
47824;SDS011;33589;48.242;14.676;2023-07-20T00:55:36;4.55;;;3.42;;
47824;SDS011;33589;48.242;14.676;2023-07-20T00:58:02;5.70;;;3.70;;
47824;SDS011;33589;48.242;14.676;2023-07-20T01:00:28;4.25;;;3.35;;
47824;SDS011;33589;48.242;14.676;2023-07-20T01:02:53;5.60;;;3.45;;
47824;SDS011;33589;48.242;14.676;2023-07-20T01:05:20;4.30;;;3.20;;
47824;SDS011;33589;48.242;14.676;2023-07-20T01:10:25;4.35;;;3.17;;
47824;SDS011;33589;48.242;14.676;2023-07-20T01:13:06;7.13;;;3.40;;
47824;SDS011;33589;48.242;14.676;2023-07-20T01:15:34;3.97;;;3.17;;
47824;SDS011;33589;48.242;14.676;2023-07-20T01:18:00;5.03;;;3.35;;
47824;SDS011;33589;48.242;14.676;2023-07-20T01:20:30;7.13;;;3.05;;
47824;SDS011;33589;48.242;14.676;2023-07-20T01:23:07;6.15;;;3.30;;
47824;SDS011;33589;48.242;14.676;2023-07-20T01:31:21;5.90;;;3.22;;
47824;SDS011;33589;48.242;14.676;2023-07-20T01:33:56;7.38;;;3.75;;
47824;SDS011;33589;48.242;14.676;2023-07-20T01:36:26;6.57;;;3.20;;
47824;SDS011;33589;48.242;14.676;2023-07-20T01:38:56;5.82;;;3.30;;
47824;SDS011;33589;48.242;14.676;2023-07-20T01:41:27;7.65;;;3.47;;
47824;SDS011;33589;48.242;14.676;2023-07-20T01:43:58;5.45;;;3.33;;
47824;SDS011;33589;48.242;14.676;2023-07-20T01:46:30;5.30;;;2.80;;
47824;SDS011;33589;48.242;14.676;2023-07-20T01:48:59;5.88;;;3.08;;
47824;SDS011;33589;48.242;14.676;2023-07-20T01:51:30;5.35;;;3.67;;
47824;SDS011;33589;48.242;14.676;2023-07-20T01:54:00;4.32;;;3.17;;
47824;SDS011;33589;48.242;14.676;2023-07-20T01:56:29;7.22;;;2.90;;
47824;SDS011;33589;48.242;14.676;2023-07-20T01:58:58;4.65;;;2.78;;
47824;SDS011;33589;48.242;14.676;2023-07-20T02:01:27;6.60;;;3.25;;
47824;SDS011;33589;48.242;14.676;2023-07-20T02:03:56;8.38;;;2.97;;
47824;SDS011;33589;48.242;14.676;2023-07-20T02:06:25;3.30;;;2.70;;
47824;SDS011;33589;48.242;14.676;2023-07-20T02:08:54;6.35;;;2.97;;
47824;SDS011;33589;48.242;14.676;2023-07-20T02:11:21;5.70;;;2.95;;
47824;SDS011;33589;48.242;14.676;2023-07-20T02:13:49;4.65;;;3.05;;
47824;SDS011;33589;48.242;14.676;2023-07-20T02:16:16;6.55;;;3.45;;
47824;SDS011;33589;48.242;14.676;2023-07-20T02:18:43;4.35;;;2.97;;
47824;SDS011;33589;48.242;14.676;2023-07-20T02:21:10;7.80;;;2.88;;
47824;SDS011;33589;48.242;14.676;2023-07-20T02:23:40;6.22;;;3.00;;
47824;SDS011;33589;48.242;14.676;2023-07-20T02:26:23;4.88;;;2.53;;
47824;SDS011;33589;48.242;14.676;2023-07-20T02:28:55;5.97;;;3.10;;
47824;SDS011;33589;48.242;14.676;2023-07-20T02:31:30;4.85;;;2.92;;
47824;SDS011;33589;48.242;14.676;2023-07-20T02:34:11;5.25;;;2.80;;
47824;SDS011;33589;48.242;14.676;2023-07-20T02:36:45;4.63;;;3.33;;
47824;SDS011;33589;48.242;14.676;2023-07-20T02:39:24;4.47;;;3.00;;
47824;SDS011;33589;48.242;14.676;2023-07-20T02:41:57;4.63;;;3.00;;
47824;SDS011;33589;48.242;14.676;2023-07-20T02:44:35;5.57;;;3.42;;
47824;SDS011;33589;48.242;14.676;2023-07-20T02:47:14;4.22;;;3.05;;
47824;SDS011;33589;48.242;14.676;2023-07-20T02:50:22;6.45;;;3.08;;
47824;SDS011;33589;48.242;14.676;2023-07-20T02:53:36;5.45;;;3.03;;
47824;SDS011;33589;48.242;14.676;2023-07-20T02:56:47;6.40;;;2.80;;
47824;SDS011;33589;48.242;14.676;2023-07-20T02:59:58;3.38;;;2.92;;
47824;SDS011;33589;48.242;14.676;2023-07-20T03:03:09;5.55;;;3.25;;
47824;SDS011;33589;48.242;14.676;2023-07-20T03:06:20;5.10;;;3.08;;
47824;SDS011;33589;48.242;14.676;2023-07-20T03:09:33;4.32;;;3.20;;
47824;SDS011;33589;48.242;14.676;2023-07-20T03:12:43;4.85;;;3.08;;
47824;SDS011;33589;48.242;14.676;2023-07-20T03:15:57;3.17;;;2.70;;
47824;SDS011;33589;48.242;14.676;2023-07-20T03:19:08;3.55;;;3.03;;
47824;SDS011;33589;48.242;14.676;2023-07-20T03:21:35;4.53;;;3.20;;
47824;SDS011;33589;48.242;14.676;2023-07-20T03:24:07;6.60;;;3.50;;
47824;SDS011;33589;48.242;14.676;2023-07-20T03:26:33;3.65;;;2.85;;
47824;SDS011;33589;48.242;14.676;2023-07-20T03:29:00;4.47;;;3.35;;
47824;SDS011;33589;48.242;14.676;2023-07-20T03:31:26;4.75;;;3.20;;
47824;SDS011;33589;48.242;14.676;2023-07-20T03:33:52;3.17;;;2.80;;
47824;SDS011;33589;48.242;14.676;2023-07-20T03:36:18;9.20;;;2.95;;
47824;SDS011;33589;48.242;14.676;2023-07-20T03:38:45;4.78;;;3.15;;
47824;SDS011;33589;48.242;14.676;2023-07-20T03:41:11;4.82;;;2.80;;
47824;SDS011;33589;48.242;14.676;2023-07-20T03:43:37;5.40;;;3.28;;
47824;SDS011;33589;48.242;14.676;2023-07-20T03:46:03;4.63;;;3.05;;
47824;SDS011;33589;48.242;14.676;2023-07-20T03:48:32;3.42;;;2.85;;
47824;SDS011;33589;48.242;14.676;2023-07-20T03:50:58;4.38;;;2.90;;
47824;SDS011;33589;48.242;14.676;2023-07-20T03:54:09;4.55;;;3.10;;
47824;SDS011;33589;48.242;14.676;2023-07-20T03:57:19;5.15;;;3.08;;
47824;SDS011;33589;48.242;14.676;2023-07-20T04:00:30;4.53;;;3.00;;
47824;SDS011;33589;48.242;14.676;2023-07-20T04:03:42;6.35;;;3.30;;
47824;SDS011;33589;48.242;14.676;2023-07-20T04:06:54;7.22;;;2.92;;
47824;SDS011;33589;48.242;14.676;2023-07-20T04:10:08;6.13;;;2.92;;
47824;SDS011;33589;48.242;14.676;2023-07-20T04:13:14;4.03;;;3.10;;
47824;SDS011;33589;48.242;14.676;2023-07-20T04:15:41;6.30;;;2.95;;
47824;SDS011;33589;48.242;14.676;2023-07-20T04:18:08;7.05;;;3.00;;
47824;SDS011;33589;48.242;14.676;2023-07-20T04:20:36;3.30;;;2.95;;
47824;SDS011;33589;48.242;14.676;2023-07-20T04:23:02;8.18;;;2.92;;
47824;SDS011;33589;48.242;14.676;2023-07-20T04:25:29;5.72;;;3.08;;
47824;SDS011;33589;48.242;14.676;2023-07-20T04:28:40;8.20;;;3.00;;
47824;SDS011;33589;48.242;14.676;2023-07-20T04:31:52;4.07;;;2.97;;
47824;SDS011;33589;48.242;14.676;2023-07-20T04:35:16;6.97;;;2.75;;
47824;SDS011;33589;48.242;14.676;2023-07-20T04:38:32;4.07;;;2.67;;
47824;SDS011;33589;48.242;14.676;2023-07-20T04:41:22;4.78;;;3.08;;
47824;SDS011;33589;48.242;14.676;2023-07-20T04:43:51;5.07;;;2.92;;
47824;SDS011;33589;48.242;14.676;2023-07-20T04:47:06;4.38;;;3.13;;
47824;SDS011;33589;48.242;14.676;2023-07-20T04:50:19;8.02;;;3.13;;
47824;SDS011;33589;48.242;14.676;2023-07-20T04:53:26;4.03;;;2.88;;
47824;SDS011;33589;48.242;14.676;2023-07-20T04:56:38;4.63;;;2.65;;
47824;SDS011;33589;48.242;14.676;2023-07-20T04:59:51;4.07;;;2.72;;
47824;SDS011;33589;48.242;14.676;2023-07-20T05:03:02;8.02;;;2.80;;
47824;SDS011;33589;48.242;14.676;2023-07-20T05:06:14;4.43;;;2.72;;
47824;SDS011;33589;48.242;14.676;2023-07-20T05:09:26;3.92;;;2.83;;
47824;SDS011;33589;48.242;14.676;2023-07-20T05:12:15;2.58;;;2.38;;
47824;SDS011;33589;48.242;14.676;2023-07-20T05:15:27;5.68;;;3.03;;
47824;SDS011;33589;48.242;14.676;2023-07-20T05:18:24;3.35;;;2.67;;
47824;SDS011;33589;48.242;14.676;2023-07-20T05:21:33;3.55;;;2.60;;
47824;SDS011;33589;48.242;14.676;2023-07-20T05:24:11;6.20;;;2.65;;
47824;SDS011;33589;48.242;14.676;2023-07-20T05:26:37;4.35;;;2.60;;
47824;SDS011;33589;48.242;14.676;2023-07-20T05:29:47;4.82;;;3.17;;
47824;SDS011;33589;48.242;14.676;2023-07-20T05:32:57;5.18;;;3.38;;
47824;SDS011;33589;48.242;14.676;2023-07-20T05:35:28;4.40;;;2.92;;
47824;SDS011;33589;48.242;14.676;2023-07-20T05:38:37;4.60;;;3.00;;
47824;SDS011;33589;48.242;14.676;2023-07-20T05:41:47;4.40;;;3.08;;
47824;SDS011;33589;48.242;14.676;2023-07-20T05:44:39;8.10;;;4.20;;
47824;SDS011;33589;48.242;14.676;2023-07-20T05:47:07;4.97;;;3.13;;
47824;SDS011;33589;48.242;14.676;2023-07-20T05:49:35;3.25;;;2.90;;
47824;SDS011;33589;48.242;14.676;2023-07-20T05:52:41;3.83;;;3.22;;
47824;SDS011;33589;48.242;14.676;2023-07-20T05:55:13;5.38;;;3.38;;
47824;SDS011;33589;48.242;14.676;2023-07-20T05:57:42;7.22;;;3.20;;
47824;SDS011;33589;48.242;14.676;2023-07-20T06:00:08;5.05;;;3.30;;
47824;SDS011;33589;48.242;14.676;2023-07-20T06:02:37;6.32;;;3.10;;
47824;SDS011;33589;48.242;14.676;2023-07-20T06:05:04;5.30;;;3.38;;
47824;SDS011;33589;48.242;14.676;2023-07-20T06:07:30;8.43;;;3.38;;
47824;SDS011;33589;48.242;14.676;2023-07-20T06:09:56;4.28;;;2.95;;
47824;SDS011;33589;48.242;14.676;2023-07-20T06:12:23;4.05;;;3.20;;
47824;SDS011;33589;48.242;14.676;2023-07-20T06:14:49;5.07;;;3.25;;
47824;SDS011;33589;48.242;14.676;2023-07-20T06:17:14;5.75;;;3.50;;
47824;SDS011;33589;48.242;14.676;2023-07-20T06:19:40;6.22;;;3.60;;
47824;SDS011;33589;48.242;14.676;2023-07-20T06:22:06;9.55;;;3.53;;
47824;SDS011;33589;48.242;14.676;2023-07-20T06:24:31;4.97;;;3.65;;
47824;SDS011;33589;48.242;14.676;2023-07-20T06:26:57;4.72;;;4.32;;
47824;SDS011;33589;48.242;14.676;2023-07-20T06:29:22;4.63;;;3.47;;
47824;SDS011;33589;48.242;14.676;2023-07-20T06:31:48;4.30;;;3.15;;
47824;SDS011;33589;48.242;14.676;2023-07-20T06:34:14;3.50;;;2.85;;
47824;SDS011;33589;48.242;14.676;2023-07-20T06:36:41;7.43;;;3.55;;
47824;SDS011;33589;48.242;14.676;2023-07-20T06:39:10;4.43;;;2.97;;
47824;SDS011;33589;48.242;14.676;2023-07-20T06:41:39;4.13;;;3.72;;
47824;SDS011;33589;48.242;14.676;2023-07-20T06:44:08;6.95;;;3.38;;
47824;SDS011;33589;48.242;14.676;2023-07-20T06:46:42;4.25;;;3.00;;
47824;SDS011;33589;48.242;14.676;2023-07-20T06:49:23;6.18;;;3.13;;
47824;SDS011;33589;48.242;14.676;2023-07-20T06:51:53;4.85;;;2.90;;
47824;SDS011;33589;48.242;14.676;2023-07-20T06:54:32;5.97;;;3.65;;
47824;SDS011;33589;48.242;14.676;2023-07-20T06:57:45;6.78;;;4.07;;
47824;SDS011;33589;48.242;14.676;2023-07-20T07:00:37;5.40;;;3.60;;
47824;SDS011;33589;48.242;14.676;2023-07-20T07:03:49;3.45;;;3.03;;
47824;SDS011;33589;48.242;14.676;2023-07-20T07:06:40;4.55;;;3.00;;
47824;SDS011;33589;48.242;14.676;2023-07-20T07:09:06;5.10;;;2.80;;
47824;SDS011;33589;48.242;14.676;2023-07-20T07:11:33;3.83;;;3.25;;
47824;SDS011;33589;48.242;14.676;2023-07-20T07:13:59;4.20;;;3.05;;
47824;SDS011;33589;48.242;14.676;2023-07-20T07:16:24;6.07;;;3.08;;
47824;SDS011;33589;48.242;14.676;2023-07-20T07:18:50;4.57;;;3.28;;
47824;SDS011;33589;48.242;14.676;2023-07-20T07:21:16;5.80;;;3.22;;
47824;SDS011;33589;48.242;14.676;2023-07-20T07:23:42;5.20;;;4.70;;
47824;SDS011;33589;48.242;14.676;2023-07-20T07:26:09;4.40;;;3.08;;
47824;SDS011;33589;48.242;14.676;2023-07-20T07:28:37;6.82;;;3.80;;
47824;SDS011;33589;48.242;14.676;2023-07-20T07:31:06;5.25;;;2.70;;
47824;SDS011;33589;48.242;14.676;2023-07-20T07:33:32;3.20;;;2.80;;
47824;SDS011;33589;48.242;14.676;2023-07-20T07:36:44;3.25;;;2.80;;
47824;SDS011;33589;48.242;14.676;2023-07-20T07:39:50;4.03;;;3.05;;
47824;SDS011;33589;48.242;14.676;2023-07-20T07:42:16;4.47;;;2.75;;
47824;SDS011;33589;48.242;14.676;2023-07-20T07:44:43;4.90;;;3.00;;
47824;SDS011;33589;48.242;14.676;2023-07-20T07:47:14;4.43;;;3.28;;
47824;SDS011;33589;48.242;14.676;2023-07-20T07:49:40;7.47;;;6.30;;
47824;SDS011;33589;48.242;14.676;2023-07-20T07:52:16;4.45;;;3.40;;
47824;SDS011;33589;48.242;14.676;2023-07-20T07:54:41;3.42;;;3.13;;
47824;SDS011;33589;48.242;14.676;2023-07-20T07:57:44;4.13;;;3.17;;
47824;SDS011;33589;48.242;14.676;2023-07-20T08:00:50;7.13;;;2.85;;
47824;SDS011;33589;48.242;14.676;2023-07-20T08:03:41;5.63;;;2.85;;
47824;SDS011;33589;48.242;14.676;2023-07-20T08:06:32;5.22;;;3.47;;
47824;SDS011;33589;48.242;14.676;2023-07-20T08:09:13;8.40;;;3.00;;
47824;SDS011;33589;48.242;14.676;2023-07-20T08:12:08;5.57;;;3.47;;
47824;SDS011;33589;48.242;14.676;2023-07-20T08:15:04;9.50;;;3.30;;
47824;SDS011;33589;48.242;14.676;2023-07-20T08:17:55;5.95;;;3.22;;
47824;SDS011;33589;48.242;14.676;2023-07-20T08:20:46;3.78;;;2.65;;
47824;SDS011;33589;48.242;14.676;2023-07-20T08:23:20;3.25;;;2.58;;
47824;SDS011;33589;48.242;14.676;2023-07-20T08:25:46;3.67;;;2.50;;
47824;SDS011;33589;48.242;14.676;2023-07-20T08:28:40;3.78;;;2.70;;
47824;SDS011;33589;48.242;14.676;2023-07-20T08:31:07;5.13;;;2.70;;
47824;SDS011;33589;48.242;14.676;2023-07-20T08:33:32;4.07;;;2.33;;
47824;SDS011;33589;48.242;14.676;2023-07-20T08:35:59;4.15;;;2.42;;
47824;SDS011;33589;48.242;14.676;2023-07-20T08:38:26;6.65;;;2.50;;
47824;SDS011;33589;48.242;14.676;2023-07-20T08:40:52;8.10;;;3.10;;
47824;SDS011;33589;48.242;14.676;2023-07-20T08:43:22;4.93;;;2.65;;
47824;SDS011;33589;48.242;14.676;2023-07-20T08:45:51;2.55;;;2.20;;
47824;SDS011;33589;48.242;14.676;2023-07-20T08:48:17;3.55;;;2.58;;
47824;SDS011;33589;48.242;14.676;2023-07-20T08:50:44;4.78;;;2.45;;
47824;SDS011;33589;48.242;14.676;2023-07-20T08:53:11;6.15;;;2.75;;
47824;SDS011;33589;48.242;14.676;2023-07-20T08:55:38;3.08;;;2.25;;
47824;SDS011;33589;48.242;14.676;2023-07-20T08:58:05;6.10;;;2.83;;
47824;SDS011;33589;48.242;14.676;2023-07-20T09:00:36;3.80;;;2.85;;
47824;SDS011;33589;48.242;14.676;2023-07-20T09:03:03;3.10;;;2.67;;
47824;SDS011;33589;48.242;14.676;2023-07-20T09:05:29;3.83;;;2.50;;
47824;SDS011;33589;48.242;14.676;2023-07-20T09:07:55;6.90;;;2.40;;
47824;SDS011;33589;48.242;14.676;2023-07-20T09:10:21;2.95;;;2.13;;
47824;SDS011;33589;48.242;14.676;2023-07-20T09:12:47;4.15;;;2.20;;
47824;SDS011;33589;48.242;14.676;2023-07-20T09:15:12;2.63;;;2.00;;
47824;SDS011;33589;48.242;14.676;2023-07-20T09:17:38;2.58;;;2.38;;
47824;SDS011;33589;48.242;14.676;2023-07-20T09:20:08;4.53;;;2.03;;
47824;SDS011;33589;48.242;14.676;2023-07-20T09:22:36;4.30;;;2.50;;
47824;SDS011;33589;48.242;14.676;2023-07-20T09:25:06;7.00;;;2.80;;
47824;SDS011;33589;48.242;14.676;2023-07-20T09:27:36;2.83;;;2.17;;
47824;SDS011;33589;48.242;14.676;2023-07-20T09:30:02;3.53;;;2.38;;
47824;SDS011;33589;48.242;14.676;2023-07-20T09:32:39;3.08;;;2.30;;
47824;SDS011;33589;48.242;14.676;2023-07-20T09:35:06;3.30;;;2.28;;
47824;SDS011;33589;48.242;14.676;2023-07-20T09:37:34;2.42;;;1.92;;
47824;SDS011;33589;48.242;14.676;2023-07-20T09:39:59;5.25;;;2.00;;
47824;SDS011;33589;48.242;14.676;2023-07-20T09:42:25;4.68;;;2.55;;
47824;SDS011;33589;48.242;14.676;2023-07-20T09:44:52;4.10;;;2.20;;
47824;SDS011;33589;48.242;14.676;2023-07-20T09:47:22;2.90;;;2.13;;
47824;SDS011;33589;48.242;14.676;2023-07-20T09:49:48;3.22;;;2.50;;
47824;SDS011;33589;48.242;14.676;2023-07-20T09:52:14;5.50;;;2.40;;
47824;SDS011;33589;48.242;14.676;2023-07-20T09:54:40;3.33;;;1.70;;
47824;SDS011;33589;48.242;14.676;2023-07-20T09:57:11;2.65;;;2.00;;
47824;SDS011;33589;48.242;14.676;2023-07-20T09:59:39;2.80;;;2.25;;
47824;SDS011;33589;48.242;14.676;2023-07-20T10:02:07;4.85;;;2.40;;
47824;SDS011;33589;48.242;14.676;2023-07-20T10:04:36;3.25;;;2.05;;
47824;SDS011;33589;48.242;14.676;2023-07-20T10:07:04;3.60;;;2.20;;
47824;SDS011;33589;48.242;14.676;2023-07-20T10:09:34;2.90;;;2.13;;
47824;SDS011;33589;48.242;14.676;2023-07-20T10:12:04;7.40;;;2.65;;
47824;SDS011;33589;48.242;14.676;2023-07-20T10:14:31;5.57;;;2.58;;
47824;SDS011;33589;48.242;14.676;2023-07-20T10:17:03;4.72;;;2.42;;
47824;SDS011;33589;48.242;14.676;2023-07-20T10:19:45;4.57;;;2.58;;
47824;SDS011;33589;48.242;14.676;2023-07-20T10:22:22;5.32;;;2.78;;
47824;SDS011;33589;48.242;14.676;2023-07-20T10:24:55;4.05;;;2.50;;
47824;SDS011;33589;48.242;14.676;2023-07-20T10:27:23;2.80;;;2.35;;
47824;SDS011;33589;48.242;14.676;2023-07-20T10:29:51;5.63;;;2.47;;
47824;SDS011;33589;48.242;14.676;2023-07-20T10:32:18;4.68;;;3.00;;
47824;SDS011;33589;48.242;14.676;2023-07-20T10:34:51;4.45;;;2.88;;
47824;SDS011;33589;48.242;14.676;2023-07-20T10:43:09;4.68;;;2.10;;
47824;SDS011;33589;48.242;14.676;2023-07-20T10:45:53;3.95;;;2.45;;
47824;SDS011;33589;48.242;14.676;2023-07-20T10:48:22;4.03;;;2.42;;
47824;SDS011;33589;48.242;14.676;2023-07-20T10:53:33;4.55;;;2.78;;
47824;SDS011;33589;48.242;14.676;2023-07-20T10:56:07;4.05;;;2.60;;
47824;SDS011;33589;48.242;14.676;2023-07-20T10:58:34;13.45;;;2.90;;
47824;SDS011;33589;48.242;14.676;2023-07-20T11:01:00;3.20;;;2.30;;
47824;SDS011;33589;48.242;14.676;2023-07-20T11:03:30;3.03;;;2.17;;
47824;SDS011;33589;48.242;14.676;2023-07-20T11:05:57;3.08;;;2.40;;
47824;SDS011;33589;48.242;14.676;2023-07-20T11:08:40;2.67;;;2.22;;
47824;SDS011;33589;48.242;14.676;2023-07-20T11:11:25;5.22;;;2.63;;
47824;SDS011;33589;48.242;14.676;2023-07-20T11:13:58;3.35;;;2.45;;
47824;SDS011;33589;48.242;14.676;2023-07-20T11:16:34;3.40;;;2.60;;
47824;SDS011;33589;48.242;14.676;2023-07-20T11:19:01;3.22;;;2.35;;
47824;SDS011;33589;48.242;14.676;2023-07-20T11:21:27;4.82;;;2.22;;
47824;SDS011;33589;48.242;14.676;2023-07-20T11:23:54;5.30;;;2.30;;
47824;SDS011;33589;48.242;14.676;2023-07-20T11:26:21;5.10;;;2.40;;
47824;SDS011;33589;48.242;14.676;2023-07-20T11:28:49;3.10;;;2.40;;
47824;SDS011;33589;48.242;14.676;2023-07-20T11:31:17;3.90;;;2.42;;
47824;SDS011;33589;48.242;14.676;2023-07-20T11:33:43;6.22;;;2.83;;
47824;SDS011;33589;48.242;14.676;2023-07-20T11:36:09;4.95;;;2.60;;
47824;SDS011;33589;48.242;14.676;2023-07-20T11:38:35;3.53;;;2.72;;
47824;SDS011;33589;48.242;14.676;2023-07-20T11:41:04;4.05;;;2.08;;
47824;SDS011;33589;48.242;14.676;2023-07-20T11:43:31;3.97;;;2.50;;
47824;SDS011;33589;48.242;14.676;2023-07-20T11:45:59;3.50;;;2.60;;
47824;SDS011;33589;48.242;14.676;2023-07-20T11:48:27;6.07;;;2.80;;
47824;SDS011;33589;48.242;14.676;2023-07-20T11:50:53;3.17;;;2.60;;
47824;SDS011;33589;48.242;14.676;2023-07-20T11:53:21;2.22;;;2.03;;
47824;SDS011;33589;48.242;14.676;2023-07-20T11:55:49;3.13;;;2.50;;
47824;SDS011;33589;48.242;14.676;2023-07-20T11:58:15;4.05;;;2.40;;
47824;SDS011;33589;48.242;14.676;2023-07-20T12:00:42;2.83;;;2.10;;
47824;SDS011;33589;48.242;14.676;2023-07-20T12:03:09;5.45;;;2.50;;
47824;SDS011;33589;48.242;14.676;2023-07-20T12:05:37;3.90;;;2.38;;
47824;SDS011;33589;48.242;14.676;2023-07-20T12:08:04;3.80;;;2.40;;
47824;SDS011;33589;48.242;14.676;2023-07-20T12:10:30;5.05;;;2.70;;
47824;SDS011;33589;48.242;14.676;2023-07-20T12:13:00;3.17;;;2.00;;
47824;SDS011;33589;48.242;14.676;2023-07-20T12:15:30;4.60;;;2.35;;
47824;SDS011;33589;48.242;14.676;2023-07-20T12:17:57;5.53;;;2.67;;
47824;SDS011;33589;48.242;14.676;2023-07-20T12:22:50;6.60;;;2.45;;
47824;SDS011;33589;48.242;14.676;2023-07-20T12:25:16;10.85;;;2.33;;
47824;SDS011;33589;48.242;14.676;2023-07-20T12:27:45;2.95;;;1.95;;
47824;SDS011;33589;48.242;14.676;2023-07-20T12:30:12;2.22;;;2.03;;
47824;SDS011;33589;48.242;14.676;2023-07-20T12:32:38;2.20;;;1.98;;
47824;SDS011;33589;48.242;14.676;2023-07-20T12:35:05;2.42;;;1.90;;
47824;SDS011;33589;48.242;14.676;2023-07-20T12:37:31;2.80;;;1.73;;
47824;SDS011;33589;48.242;14.676;2023-07-20T12:39:57;4.30;;;1.70;;
47824;SDS011;33589;48.242;14.676;2023-07-20T12:42:23;3.78;;;2.03;;
47824;SDS011;33589;48.242;14.676;2023-07-20T12:44:50;2.25;;;2.00;;
47824;SDS011;33589;48.242;14.676;2023-07-20T12:47:17;1.80;;;1.70;;
47824;SDS011;33589;48.242;14.676;2023-07-20T12:49:47;2.17;;;1.63;;
47824;SDS011;33589;48.242;14.676;2023-07-20T12:52:18;1.52;;;1.40;;
47824;SDS011;33589;48.242;14.676;2023-07-20T12:54:43;3.00;;;1.70;;
47824;SDS011;33589;48.242;14.676;2023-07-20T12:57:09;3.28;;;1.60;;
47824;SDS011;33589;48.242;14.676;2023-07-20T12:59:37;3.70;;;1.80;;
47824;SDS011;33589;48.242;14.676;2023-07-20T13:02:03;1.90;;;1.67;;
47824;SDS011;33589;48.242;14.676;2023-07-20T13:04:29;2.60;;;1.60;;
47824;SDS011;33589;48.242;14.676;2023-07-20T13:06:55;6.53;;;2.08;;
47824;SDS011;33589;48.242;14.676;2023-07-20T13:09:23;7.15;;;2.15;;
47824;SDS011;33589;48.242;14.676;2023-07-20T13:11:50;4.18;;;2.15;;
47824;SDS011;33589;48.242;14.676;2023-07-20T13:14:17;3.50;;;1.80;;
47824;SDS011;33589;48.242;14.676;2023-07-20T13:16:43;4.50;;;1.88;;
47824;SDS011;33589;48.242;14.676;2023-07-20T13:19:08;4.10;;;2.13;;
47824;SDS011;33589;48.242;14.676;2023-07-20T13:21:34;4.45;;;2.20;;
47824;SDS011;33589;48.242;14.676;2023-07-20T13:24:00;3.15;;;1.80;;
47824;SDS011;33589;48.242;14.676;2023-07-20T13:26:26;2.22;;;1.73;;
47824;SDS011;33589;48.242;14.676;2023-07-20T13:28:55;2.42;;;1.65;;
47824;SDS011;33589;48.242;14.676;2023-07-20T13:31:21;1.88;;;1.70;;
47824;SDS011;33589;48.242;14.676;2023-07-20T13:33:47;3.30;;;1.67;;
47824;SDS011;33589;48.242;14.676;2023-07-20T13:36:13;3.25;;;1.70;;
47824;SDS011;33589;48.242;14.676;2023-07-20T13:38:39;2.38;;;2.03;;
47824;SDS011;33589;48.242;14.676;2023-07-20T13:41:05;4.80;;;1.80;;
47824;SDS011;33589;48.242;14.676;2023-07-20T13:43:30;1.88;;;1.75;;
47824;SDS011;33589;48.242;14.676;2023-07-20T13:45:56;2.63;;;1.70;;
47824;SDS011;33589;48.242;14.676;2023-07-20T13:48:26;2.10;;;1.90;;
47824;SDS011;33589;48.242;14.676;2023-07-20T13:50:56;2.45;;;1.83;;
47824;SDS011;33589;48.242;14.676;2023-07-20T13:53:21;3.25;;;1.90;;
47824;SDS011;33589;48.242;14.676;2023-07-20T13:55:47;4.55;;;1.70;;
47824;SDS011;33589;48.242;14.676;2023-07-20T13:58:14;2.78;;;1.70;;
47824;SDS011;33589;48.242;14.676;2023-07-20T14:00:40;3.38;;;2.03;;
47824;SDS011;33589;48.242;14.676;2023-07-20T14:03:05;4.72;;;1.60;;
47824;SDS011;33589;48.242;14.676;2023-07-20T14:05:31;2.33;;;1.67;;
47824;SDS011;33589;48.242;14.676;2023-07-20T14:07:57;2.13;;;1.92;;
47824;SDS011;33589;48.242;14.676;2023-07-20T14:10:22;3.15;;;1.80;;
47824;SDS011;33589;48.242;14.676;2023-07-20T14:12:48;1.90;;;1.73;;
47824;SDS011;33589;48.242;14.676;2023-07-20T14:15:18;3.17;;;2.03;;
47824;SDS011;33589;48.242;14.676;2023-07-20T14:17:45;1.98;;;1.65;;
47824;SDS011;33589;48.242;14.676;2023-07-20T14:20:10;2.47;;;1.80;;
47824;SDS011;33589;48.242;14.676;2023-07-20T14:22:36;2.75;;;1.83;;
47824;SDS011;33589;48.242;14.676;2023-07-20T14:25:03;8.38;;;2.10;;
47824;SDS011;33589;48.242;14.676;2023-07-20T14:27:28;6.43;;;2.03;;
47824;SDS011;33589;48.242;14.676;2023-07-20T14:29:57;3.95;;;1.80;;
47824;SDS011;33589;48.242;14.676;2023-07-20T14:32:23;4.00;;;1.83;;
47824;SDS011;33589;48.242;14.676;2023-07-20T14:34:50;3.42;;;1.73;;
47824;SDS011;33589;48.242;14.676;2023-07-20T14:37:18;2.20;;;1.95;;
47824;SDS011;33589;48.242;14.676;2023-07-20T14:39:44;2.38;;;1.80;;
47824;SDS011;33589;48.242;14.676;2023-07-20T14:42:10;5.25;;;2.17;;
47824;SDS011;33589;48.242;14.676;2023-07-20T14:44:35;3.00;;;2.00;;
47824;SDS011;33589;48.242;14.676;2023-07-20T14:47:01;2.40;;;1.98;;
47824;SDS011;33589;48.242;14.676;2023-07-20T14:49:28;4.25;;;2.47;;
47824;SDS011;33589;48.242;14.676;2023-07-20T14:51:54;3.72;;;3.25;;
47824;SDS011;33589;48.242;14.676;2023-07-20T14:54:21;3.50;;;1.92;;
47824;SDS011;33589;48.242;14.676;2023-07-20T14:56:50;2.25;;;1.65;;
47824;SDS011;33589;48.242;14.676;2023-07-20T14:59:18;3.13;;;2.05;;
47824;SDS011;33589;48.242;14.676;2023-07-20T15:01:44;2.72;;;2.00;;
47824;SDS011;33589;48.242;14.676;2023-07-20T15:04:13;2.10;;;1.83;;
47824;SDS011;33589;48.242;14.676;2023-07-20T15:06:40;5.10;;;2.10;;
47824;SDS011;33589;48.242;14.676;2023-07-20T15:09:06;3.20;;;1.73;;
47824;SDS011;33589;48.242;14.676;2023-07-20T15:11:33;2.83;;;2.20;;
47824;SDS011;33589;48.242;14.676;2023-07-20T15:13:59;3.03;;;1.92;;
47824;SDS011;33589;48.242;14.676;2023-07-20T15:16:25;2.00;;;1.80;;
47824;SDS011;33589;48.242;14.676;2023-07-20T15:18:50;2.03;;;1.83;;
47824;SDS011;33589;48.242;14.676;2023-07-20T15:21:16;4.88;;;2.53;;
47824;SDS011;33589;48.242;14.676;2023-07-20T15:23:43;5.10;;;2.70;;
47824;SDS011;33589;48.242;14.676;2023-07-20T15:26:08;3.80;;;1.88;;
47824;SDS011;33589;48.242;14.676;2023-07-20T15:28:36;2.80;;;1.90;;
47824;SDS011;33589;48.242;14.676;2023-07-20T15:31:03;3.38;;;2.00;;
47824;SDS011;33589;48.242;14.676;2023-07-20T15:33:30;3.13;;;2.50;;